createdAt,value
2022-11-29T00:01:06.879Z,7.78
2022-11-29T00:03:34.529Z,8.13
2022-11-29T00:06:10.776Z,8.40
2022-11-29T00:08:37.489Z,7.40
2022-11-29T00:11:35.619Z,8.48
2022-11-29T00:14:02.336Z,7.85
2022-11-29T00:16:29.273Z,8.30
2022-11-29T00:18:55.961Z,8.45
2022-11-29T00:21:22.383Z,7.72
2022-11-29T00:23:49.160Z,9.80
2022-11-29T00:26:15.628Z,9.75
2022-11-29T00:28:42.303Z,9.85
2022-11-29T00:31:21.403Z,10.35
2022-11-29T00:33:48.712Z,9.30
2022-11-29T00:36:16.165Z,9.10
2022-11-29T00:38:42.798Z,8.80
2022-11-29T00:41:10.291Z,9.15
2022-11-29T00:43:36.852Z,8.73
2022-11-29T00:46:03.654Z,8.68
2022-11-29T00:48:30.775Z,9.90
2022-11-29T00:50:57.314Z,9.63
2022-11-29T00:53:24.278Z,9.48
2022-11-29T00:55:51.902Z,8.70
2022-11-29T00:58:19.957Z,8.35
2022-11-29T01:00:47.605Z,9.27
2022-11-29T01:03:15.350Z,7.68
2022-11-29T01:05:42.868Z,9.00
2022-11-29T01:08:10.398Z,9.95
2022-11-29T01:10:36.953Z,8.60
2022-11-29T01:13:03.413Z,8.45
2022-11-29T01:15:30.118Z,9.13
2022-11-29T01:17:56.715Z,9.02
2022-11-29T01:20:23.248Z,8.38
2022-11-29T01:22:49.656Z,8.82
2022-11-29T01:25:19.175Z,8.43
2022-11-29T01:27:46.389Z,9.43
2022-11-29T01:30:13.758Z,8.88
2022-11-29T01:32:40.252Z,8.23
2022-11-29T01:35:07.229Z,9.63
2022-11-29T01:37:33.741Z,7.90
2022-11-29T01:40:00.204Z,8.63
2022-11-29T01:42:26.657Z,8.55
2022-11-29T01:45:25.748Z,9.02
2022-11-29T01:47:56.585Z,8.10
2022-11-29T01:50:23.368Z,8.13
2022-11-29T01:52:49.880Z,8.70
2022-11-29T01:55:18.987Z,8.23
2022-11-29T01:57:45.887Z,8.25
2022-11-29T02:00:15.750Z,8.32
2022-11-29T02:02:45.508Z,8.07
2022-11-29T02:05:14.832Z,8.50
2022-11-29T02:07:45.678Z,8.20
2022-11-29T02:10:13.270Z,8.07
2022-11-29T02:13:15.194Z,7.53
2022-11-29T02:16:03.672Z,7.32
2022-11-29T02:18:52.291Z,8.20
2022-11-29T02:21:30.727Z,7.18
2022-11-29T02:24:15.929Z,7.65
2022-11-29T02:27:04.183Z,7.55
2022-11-29T02:30:05.698Z,7.97
2022-11-29T02:32:50.418Z,7.03
2022-11-29T02:35:33.629Z,8.30
2022-11-29T02:38:46.701Z,6.65
2022-11-29T02:41:49.021Z,7.00
2022-11-29T02:44:22.910Z,6.00
2022-11-29T02:47:02.736Z,6.25
2022-11-29T02:49:48.103Z,6.97
2022-11-29T02:52:29.406Z,8.05
2022-11-29T02:55:05.019Z,6.75
2022-11-29T02:57:36.557Z,7.00
2022-11-29T03:00:10.189Z,7.38
2022-11-29T03:02:50.539Z,7.18
2022-11-29T03:05:48.612Z,7.75
2022-11-29T03:08:31.129Z,6.50
2022-11-29T03:11:18.096Z,7.88
2022-11-29T03:13:59.824Z,6.85
2022-11-29T03:16:39.727Z,6.90
2022-11-29T03:19:18.110Z,7.15
2022-11-29T03:22:10.350Z,7.53
2022-11-29T03:24:44.870Z,7.95
2022-11-29T03:27:16.491Z,7.80
2022-11-29T03:29:56.402Z,7.53
2022-11-29T03:32:29.906Z,7.70
2022-11-29T03:34:57.539Z,7.55
2022-11-29T03:37:44.196Z,8.70
2022-11-29T03:40:29.474Z,8.57
2022-11-29T03:43:14.258Z,7.72
2022-11-29T03:45:48.934Z,8.00
2022-11-29T03:48:47.048Z,8.43
2022-11-29T03:51:23.278Z,6.53
2022-11-29T03:54:03.509Z,8.98
2022-11-29T03:56:32.937Z,7.97
2022-11-29T03:59:29.269Z,8.52
2022-11-29T04:02:02.479Z,9.88
2022-11-29T04:04:47.483Z,8.07
2022-11-29T04:07:32.969Z,8.82
2022-11-29T04:10:16.261Z,9.60
2022-11-29T04:13:16.134Z,9.70
2022-11-29T04:16:02.847Z,9.20
2022-11-29T04:18:53.806Z,10.13
2022-11-29T04:21:41.781Z,10.93
2022-11-29T04:24:08.097Z,9.25
2022-11-29T04:26:45.224Z,11.00
2022-11-29T04:29:31.574Z,9.98
2022-11-29T04:32:19.799Z,10.80
2022-11-29T04:35:05.511Z,11.10
2022-11-29T04:37:45.946Z,10.60
2022-11-29T04:40:49.890Z,10.82
2022-11-29T04:43:52.990Z,12.13
2022-11-29T04:46:31.346Z,10.32
2022-11-29T04:49:05.600Z,11.65
2022-11-29T04:51:45.423Z,10.77
2022-11-29T04:54:20.934Z,11.35
2022-11-29T04:56:51.181Z,11.45
2022-11-29T04:59:39.658Z,10.57
2022-11-29T05:02:37.172Z,10.93
2022-11-29T05:05:21.988Z,10.18
2022-11-29T05:08:04.441Z,10.52
2022-11-29T05:10:51.880Z,10.45
2022-11-29T05:13:51.605Z,11.32
2022-11-29T05:16:38.346Z,11.23
2022-11-29T05:19:25.054Z,11.00
2022-11-29T05:21:59.816Z,10.48
2022-11-29T05:24:32.259Z,10.75
2022-11-29T05:27:22.530Z,12.65
2022-11-29T05:29:51.882Z,12.48
2022-11-29T05:32:32.572Z,12.25
2022-11-29T05:35:27.619Z,14.38
2022-11-29T05:38:01.439Z,14.50
2022-11-29T05:40:53.358Z,15.13
2022-11-29T05:43:34.757Z,15.40
2022-11-29T05:46:12.709Z,13.90
2022-11-29T05:48:47.714Z,14.40
2022-11-29T05:51:14.278Z,14.85
2022-11-29T05:54:35.147Z,14.85
2022-11-29T05:57:07.400Z,12.68
2022-11-29T05:59:38.510Z,13.20
2022-11-29T06:02:12.705Z,13.75
2022-11-29T06:04:48.675Z,13.20
2022-11-29T06:07:40.037Z,12.18
2022-11-29T06:10:12.506Z,12.93
2022-11-29T06:12:40.261Z,12.18
2022-11-29T06:15:31.316Z,11.23
2022-11-29T06:18:25.846Z,12.75
2022-11-29T06:21:05.233Z,10.93
2022-11-29T06:23:53.512Z,12.68
2022-11-29T06:26:38.178Z,13.50
2022-11-29T06:29:23.819Z,13.90
2022-11-29T06:31:55.707Z,12.57
2022-11-29T06:34:38.226Z,14.65
2022-11-29T06:37:27.499Z,14.20
2022-11-29T06:39:55.387Z,12.18
2022-11-29T06:42:21.765Z,13.82
2022-11-29T06:44:48.556Z,14.27
2022-11-29T06:47:26.840Z,15.45
2022-11-29T06:50:04.206Z,14.80
2022-11-29T06:52:44.380Z,13.10
2022-11-29T06:55:19.249Z,14.48
2022-11-29T06:57:51.662Z,14.68
2022-11-29T07:00:26.995Z,12.50
2022-11-29T07:03:30.869Z,14.35
2022-11-29T07:05:58.456Z,12.82
2022-11-29T07:08:25.390Z,13.77
2022-11-29T07:10:55.483Z,12.82
2022-11-29T07:13:22.842Z,13.52
2022-11-29T07:16:14.224Z,12.43
2022-11-29T07:18:54.591Z,13.15
2022-11-29T07:21:39.143Z,13.98
2022-11-29T07:24:27.817Z,15.05
2022-11-29T07:27:10.594Z,12.88
2022-11-29T07:29:39.721Z,13.18
2022-11-29T07:32:15.138Z,13.98
2022-11-29T07:34:49.626Z,13.75
2022-11-29T07:37:34.134Z,15.05
2022-11-29T07:40:24.227Z,13.18
2022-11-29T07:42:56.317Z,13.23
2022-11-29T07:45:36.091Z,14.23
2022-11-29T07:48:02.555Z,14.32
2022-11-29T07:50:29.637Z,13.63
2022-11-29T07:52:56.860Z,13.40
2022-11-29T07:55:27.122Z,13.50
2022-11-29T07:57:53.619Z,13.75
2022-11-29T08:00:21.963Z,14.35
2022-11-29T08:02:50.037Z,13.30
2022-11-29T08:05:17.168Z,13.68
2022-11-29T08:07:43.748Z,13.45
2022-11-29T08:10:15.785Z,14.15
2022-11-29T08:12:44.541Z,13.23
2022-11-29T08:15:11.815Z,13.85
2022-11-29T08:17:39.360Z,13.63
2022-11-29T08:20:07.312Z,15.40
2022-11-29T08:22:33.857Z,14.63
2022-11-29T08:25:01.343Z,18.92
2022-11-29T08:27:27.987Z,14.70
2022-11-29T08:29:55.526Z,15.68
2022-11-29T08:32:22.013Z,15.18
2022-11-29T08:34:48.692Z,14.60
2022-11-29T08:37:15.257Z,14.75
2022-11-29T08:39:41.622Z,15.10
2022-11-29T08:42:08.212Z,15.10
2022-11-29T08:44:34.549Z,14.23
2022-11-29T08:47:19.674Z,15.48
2022-11-29T08:50:01.180Z,15.45
2022-11-29T08:52:58.384Z,14.30
2022-11-29T08:55:29.020Z,16.30
2022-11-29T08:58:02.193Z,14.65
2022-11-29T09:00:28.634Z,13.38
2022-11-29T09:02:55.277Z,13.85
2022-11-29T09:05:21.631Z,14.48
2022-11-29T09:07:48.271Z,14.73
2022-11-29T09:10:14.722Z,14.93
2022-11-29T09:12:41.338Z,16.73
2022-11-29T09:15:11.357Z,17.15
2022-11-29T09:17:38.048Z,16.27
2022-11-29T09:20:05.520Z,16.88
2022-11-29T09:22:32.101Z,16.23
2022-11-29T09:24:58.489Z,18.55
2022-11-29T09:27:25.016Z,18.95
2022-11-29T09:29:51.406Z,18.52
2022-11-29T09:32:17.925Z,19.08
2022-11-29T09:34:44.538Z,20.42
2022-11-29T09:37:11.199Z,20.00
2022-11-29T09:39:38.154Z,20.98
2022-11-29T09:42:41.982Z,23.23
2022-11-29T09:45:18.378Z,24.55
2022-11-29T09:48:17.689Z,21.15
2022-11-29T09:51:03.002Z,20.15
2022-11-29T09:54:04.155Z,22.02
2022-11-29T09:56:49.981Z,23.95
2022-11-29T09:59:32.015Z,23.13
2022-11-29T10:02:06.125Z,24.23
2022-11-29T10:04:40.335Z,22.93
2022-11-29T10:07:17.611Z,25.47
2022-11-29T10:09:48.877Z,28.30
2022-11-29T10:12:37.698Z,24.88
2022-11-29T10:15:19.240Z,26.30
2022-11-29T10:18:01.935Z,25.05
2022-11-29T10:20:35.387Z,27.65
2022-11-29T10:23:15.011Z,25.30
2022-11-29T10:25:56.653Z,27.08
2022-11-29T10:28:31.181Z,28.73
2022-11-29T10:31:14.611Z,27.52
2022-11-29T10:33:42.305Z,26.50
2022-11-29T10:36:36.529Z,25.00
2022-11-29T10:39:13.015Z,25.40
2022-11-29T10:41:40.880Z,25.10
2022-11-29T10:44:09.764Z,25.20
2022-11-29T10:46:37.034Z,24.20
2022-11-29T10:49:06.960Z,23.48
2022-11-29T10:51:34.711Z,25.13
2022-11-29T10:54:36.955Z,26.85
2022-11-29T10:57:12.627Z,25.40
2022-11-29T10:59:39.009Z,26.48
2022-11-29T11:02:18.283Z,25.95
2022-11-29T11:04:47.451Z,23.45
2022-11-29T11:07:25.648Z,23.23
2022-11-29T11:09:55.919Z,25.63
2022-11-29T11:12:27.442Z,23.95
2022-11-29T11:15:28.118Z,26.05
2022-11-29T11:17:57.678Z,23.83
2022-11-29T11:20:27.481Z,24.02
2022-11-29T11:23:27.484Z,28.73
2022-11-29T11:26:07.973Z,22.13
2022-11-29T11:28:55.068Z,24.10
2022-11-29T11:31:39.538Z,23.70
2022-11-29T11:34:30.251Z,21.00
2022-11-29T11:37:14.960Z,22.95
2022-11-29T11:39:45.418Z,20.17
2022-11-29T11:42:40.910Z,21.38
2022-11-29T11:45:10.112Z,21.23
2022-11-29T11:48:16.153Z,22.63
2022-11-29T11:50:51.128Z,19.85
2022-11-29T11:53:20.793Z,19.08
2022-11-29T11:56:00.915Z,20.13
2022-11-29T11:58:31.135Z,20.67
2022-11-29T12:01:05.019Z,23.65
2022-11-29T12:04:11.552Z,31.63
2022-11-29T12:06:53.686Z,22.48
2022-11-29T12:09:38.899Z,21.13
2022-11-29T12:12:26.459Z,19.02
2022-11-29T12:15:00.985Z,20.65
2022-11-29T12:17:39.071Z,17.73
2022-11-29T12:20:15.308Z,21.05
2022-11-29T12:22:51.526Z,20.30
2022-11-29T12:25:26.647Z,19.40
2022-11-29T12:30:19.743Z,18.20
2022-11-29T12:32:53.586Z,17.92
2022-11-29T12:35:25.661Z,16.85
2022-11-29T12:38:06.864Z,16.42
2022-11-29T12:40:46.299Z,16.15
2022-11-29T12:43:18.164Z,16.85
2022-11-29T12:45:54.951Z,17.63
2022-11-29T12:48:45.435Z,15.73
2022-11-29T12:51:27.624Z,16.48
2022-11-29T12:53:56.861Z,17.10
2022-11-29T12:56:43.694Z,17.70
2022-11-29T12:59:10.026Z,18.00
2022-11-29T13:01:48.523Z,17.23
2022-11-29T13:04:31.465Z,19.50
2022-11-29T13:07:39.938Z,19.23
2022-11-29T13:10:13.645Z,18.67
2022-11-29T13:12:47.025Z,19.40
2022-11-29T13:15:20.073Z,19.20
2022-11-29T13:18:22.684Z,18.48
2022-11-29T13:21:15.023Z,22.95
2022-11-29T13:26:39.308Z,18.98
2022-11-29T13:29:07.368Z,20.95
2022-11-29T13:31:34.336Z,21.38
2022-11-29T13:34:13.171Z,21.90
2022-11-29T13:36:58.228Z,23.45
2022-11-29T13:39:36.862Z,22.58
2022-11-29T13:42:06.288Z,22.65
2022-11-29T13:44:50.431Z,22.13
2022-11-29T13:47:18.591Z,23.83
2022-11-29T13:50:32.708Z,22.63
2022-11-29T13:53:04.660Z,22.50
2022-11-29T13:55:31.625Z,21.80
2022-11-29T13:58:22.245Z,24.52
2022-11-29T14:00:51.202Z,25.02
2022-11-29T14:03:29.125Z,22.98
2022-11-29T14:06:03.982Z,23.33
2022-11-29T14:08:55.095Z,23.73
2022-11-29T14:11:31.459Z,24.38
2022-11-29T14:14:08.947Z,23.02
2022-11-29T14:16:47.891Z,24.50
2022-11-29T14:19:35.620Z,25.75
2022-11-29T14:22:01.971Z,25.75
2022-11-29T14:24:37.973Z,25.83
2022-11-29T14:27:09.923Z,25.13
2022-11-29T14:29:53.616Z,24.05
2022-11-29T14:32:56.831Z,23.48
2022-11-29T14:35:37.730Z,21.02
2022-11-29T14:38:29.204Z,23.23
2022-11-29T14:41:16.793Z,24.08
2022-11-29T14:43:43.238Z,24.08
2022-11-29T14:46:15.997Z,21.23
2022-11-29T14:48:48.110Z,21.38
2022-11-29T14:51:17.877Z,24.10
2022-11-29T14:53:46.457Z,24.85
2022-11-29T14:56:42.565Z,29.10
2022-11-29T14:59:40.801Z,28.15
2022-11-29T15:02:18.181Z,25.27
2022-11-29T15:04:45.127Z,23.00
2022-11-29T15:07:18.475Z,23.48
2022-11-29T15:09:50.156Z,24.10
2022-11-29T15:12:27.191Z,22.63
2022-11-29T15:15:27.467Z,22.70
2022-11-29T15:18:16.670Z,21.77
2022-11-29T15:21:18.449Z,22.15
2022-11-29T15:23:45.040Z,22.48
2022-11-29T15:26:18.297Z,22.02
2022-11-29T15:28:45.367Z,21.42
2022-11-29T15:31:16.137Z,21.92
2022-11-29T15:33:45.113Z,21.77
2022-11-29T15:36:20.926Z,22.77
2022-11-29T15:38:59.089Z,20.27
2022-11-29T15:41:31.224Z,21.95
2022-11-29T15:43:59.960Z,24.50
2022-11-29T15:46:29.277Z,23.55
2022-11-29T15:49:25.371Z,74.65
2022-11-29T15:51:57.954Z,28.63
2022-11-29T15:54:34.641Z,28.95
2022-11-29T15:57:08.900Z,22.75
2022-11-29T15:59:40.852Z,22.80
2022-11-29T16:02:20.536Z,24.83
2022-11-29T16:04:50.562Z,23.70
2022-11-29T16:07:18.490Z,22.95
2022-11-29T16:09:54.391Z,24.35
2022-11-29T16:12:20.873Z,20.55
2022-11-29T16:14:59.231Z,22.70
2022-11-29T16:17:29.156Z,24.80
2022-11-29T16:20:23.414Z,22.55
2022-11-29T16:23:14.567Z,22.15
2022-11-29T16:25:55.611Z,28.58
2022-11-29T16:28:23.198Z,23.80
2022-11-29T16:30:49.854Z,22.67
2022-11-29T16:33:23.717Z,23.83
2022-11-29T16:35:51.420Z,23.98
2022-11-29T16:38:22.694Z,23.08
2022-11-29T16:41:08.136Z,23.65
2022-11-29T16:43:43.743Z,24.83
2022-11-29T16:46:30.920Z,23.45
2022-11-29T16:49:00.774Z,23.20
2022-11-29T16:51:45.702Z,23.30
2022-11-29T16:54:21.964Z,23.15
2022-11-29T16:56:50.538Z,23.88
2022-11-29T16:59:26.782Z,22.60
2022-11-29T17:01:57.796Z,23.65
2022-11-29T17:04:25.488Z,24.83
2022-11-29T17:06:56.157Z,21.27
2022-11-29T17:09:28.416Z,24.23
2022-11-29T17:11:56.311Z,22.67
2022-11-29T17:14:23.242Z,23.15
2022-11-29T17:16:49.890Z,23.95
2022-11-29T17:19:16.812Z,22.95
2022-11-29T17:21:43.563Z,22.80
2022-11-29T17:24:13.438Z,23.55
2022-11-29T17:26:40.852Z,26.20
2022-11-29T17:29:07.706Z,25.90
2022-11-29T17:31:34.191Z,23.05
2022-11-29T17:34:00.849Z,24.25
2022-11-29T17:36:27.645Z,24.50
2022-11-29T17:38:54.719Z,21.50
2022-11-29T17:41:23.479Z,21.83
2022-11-29T17:43:51.450Z,22.63
2022-11-29T17:46:25.993Z,21.85
2022-11-29T17:48:53.434Z,21.10
2022-11-29T17:51:50.639Z,21.58
2022-11-29T17:54:09.133Z,21.10
2022-11-29T17:56:35.687Z,20.77
2022-11-29T17:59:03.956Z,22.33
2022-11-29T18:01:34.797Z,22.33
2022-11-29T18:04:02.654Z,27.23
2022-11-29T18:06:33.226Z,24.48
2022-11-29T18:09:01.409Z,21.90
2022-11-29T18:11:41.601Z,21.92
2022-11-29T18:14:12.815Z,19.58
2022-11-29T18:16:39.802Z,19.33
2022-11-29T18:19:08.794Z,17.17
2022-11-29T18:21:36.156Z,19.63
2022-11-29T18:24:04.292Z,18.63
2022-11-29T18:26:32.715Z,18.63
2022-11-29T18:28:59.710Z,17.25
2022-11-29T18:31:31.388Z,17.05
2022-11-29T18:34:00.601Z,18.05
2022-11-29T18:36:33.145Z,15.82
2022-11-29T18:39:06.380Z,17.50
2022-11-29T18:41:33.196Z,18.25
2022-11-29T18:44:02.500Z,19.83
2022-11-29T18:46:32.378Z,19.90
2022-11-29T18:49:00.905Z,17.27
2022-11-29T18:51:28.975Z,16.50
2022-11-29T18:53:55.541Z,16.10
2022-11-29T18:56:24.048Z,14.95
2022-11-29T18:58:58.955Z,16.58
2022-11-29T19:01:29.060Z,15.55
2022-11-29T19:03:58.058Z,17.85
2022-11-29T19:06:35.417Z,18.20
2022-11-29T19:09:05.927Z,19.35
2022-11-29T19:11:33.588Z,18.30
2022-11-29T19:14:03.172Z,20.77
2022-11-29T19:16:31.794Z,20.58
2022-11-29T19:19:00.338Z,22.00
2022-11-29T19:21:29.093Z,18.55
2022-11-29T19:23:57.870Z,22.45
2022-11-29T19:26:26.636Z,18.95
2022-11-29T19:28:53.780Z,20.73
2022-11-29T19:31:24.805Z,21.27
2022-11-29T19:33:52.620Z,19.30
2022-11-29T19:36:24.345Z,20.00
2022-11-29T19:38:53.788Z,19.20
2022-11-29T19:41:24.149Z,20.15
2022-11-29T19:43:51.080Z,20.50
2022-11-29T19:46:22.798Z,19.70
2022-11-29T19:48:51.846Z,19.20
2022-11-29T19:51:18.476Z,18.30
2022-11-29T19:53:46.495Z,19.10
2022-11-29T19:56:16.704Z,20.77
2022-11-29T19:58:44.081Z,19.88
2022-11-29T20:01:13.268Z,18.80
2022-11-29T20:03:41.051Z,18.83
2022-11-29T20:06:09.293Z,18.73
2022-11-29T20:08:36.881Z,16.42
2022-11-29T20:11:09.567Z,17.65
2022-11-29T20:13:40.738Z,18.08
2022-11-29T20:16:10.648Z,16.63
2022-11-29T20:18:39.764Z,17.98
2022-11-29T20:21:07.978Z,19.65
2022-11-29T20:23:34.958Z,21.02
2022-11-29T20:26:01.750Z,18.20
2022-11-29T20:28:28.429Z,18.60
2022-11-29T20:30:55.151Z,17.52
2022-11-29T20:33:24.608Z,16.13
2022-11-29T20:35:59.592Z,14.55
2022-11-29T20:38:28.814Z,15.40
2022-11-29T20:41:02.658Z,13.38
2022-11-29T20:43:43.989Z,13.80
2022-11-29T20:46:10.844Z,12.57
2022-11-29T20:48:37.709Z,12.35
2022-11-29T20:51:04.696Z,14.05
2022-11-29T20:53:35.802Z,14.80
2022-11-29T20:56:04.232Z,14.18
2022-11-29T20:58:31.495Z,15.77
2022-11-29T21:00:58.884Z,14.70
2022-11-29T21:03:26.369Z,15.30
2022-11-29T21:05:53.680Z,14.27
2022-11-29T21:08:22.003Z,13.88
2022-11-29T21:10:53.230Z,15.55
2022-11-29T21:13:22.060Z,14.75
2022-11-29T21:15:49.117Z,16.25
2022-11-29T21:18:27.337Z,16.02
2022-11-29T21:21:06.420Z,14.20
2022-11-29T21:23:48.778Z,14.60
2022-11-29T21:26:28.088Z,17.60
2022-11-29T21:29:07.187Z,19.85
2022-11-29T21:31:33.940Z,18.52
2022-11-29T21:34:00.933Z,19.38
2022-11-29T21:36:28.021Z,20.27
2022-11-29T21:38:55.377Z,19.60
2022-11-29T21:41:22.249Z,19.40
2022-11-29T21:44:06.145Z,19.88
2022-11-29T21:46:33.517Z,21.20
2022-11-29T21:49:00.075Z,20.95
2022-11-29T21:51:28.626Z,19.02
2022-11-29T21:53:54.977Z,20.27
2022-11-29T21:56:21.626Z,20.08
2022-11-29T21:58:47.999Z,21.17
2022-11-29T22:01:17.673Z,19.67
2022-11-29T22:03:44.715Z,19.27
2022-11-29T22:06:14.016Z,20.42
2022-11-29T22:08:41.511Z,21.42
2022-11-29T22:11:10.657Z,21.20
2022-11-29T22:13:58.678Z,20.85
2022-11-29T22:16:25.366Z,21.63
2022-11-29T22:18:52.162Z,21.58
2022-11-29T22:21:18.574Z,20.55
2022-11-29T22:23:45.234Z,21.63
2022-11-29T22:26:12.132Z,21.73
2022-11-29T22:28:38.642Z,20.60
2022-11-29T22:31:07.469Z,22.00
2022-11-29T22:33:34.574Z,22.58
2022-11-29T22:36:09.870Z,21.05
2022-11-29T22:38:36.739Z,20.88
2022-11-29T22:41:11.541Z,22.33
2022-11-29T22:43:39.243Z,22.27
2022-11-29T22:46:09.644Z,18.92
2022-11-29T22:48:38.860Z,20.05
2022-11-29T22:51:10.700Z,22.50
2022-11-29T22:53:39.458Z,21.42
2022-11-29T22:56:08.400Z,19.30
2022-11-29T22:58:35.120Z,19.58
2022-11-29T23:01:17.107Z,18.70
2022-11-29T23:03:45.626Z,18.33
2022-11-29T23:06:17.688Z,19.95
2022-11-29T23:08:46.297Z,18.77
2022-11-29T23:11:15.919Z,24.55
2022-11-29T23:13:43.656Z,20.13
2022-11-29T23:16:12.845Z,20.45
2022-11-29T23:18:39.977Z,18.83
2022-11-29T23:21:09.246Z,18.85
2022-11-29T23:23:36.169Z,17.92
2022-11-29T23:26:06.662Z,18.25
2022-11-29T23:28:34.633Z,17.83
2022-11-29T23:31:01.754Z,17.40
2022-11-29T23:33:28.407Z,17.20
2022-11-29T23:36:03.591Z,16.88
2022-11-29T23:40:57.008Z,15.63
2022-11-29T23:43:23.922Z,18.58
2022-11-29T23:45:50.692Z,18.88
2022-11-29T23:48:17.119Z,19.10
2022-11-29T23:50:43.763Z,18.88
2022-11-29T23:53:14.568Z,18.60
2022-11-29T23:55:42.082Z,17.42
2022-11-29T23:58:10.117Z,18.35
